sensor_id;sensor_type;location;lat;lon;timestamp;P1;durP1;ratioP1;P2;durP2;ratioP2
2644;SDS011;15377;48.540;9.268;2023-06-22T00:01:21;11.83;;;7.43;;
2644;SDS011;15377;48.540;9.268;2023-06-22T00:03:47;11.03;;;6.77;;
2644;SDS011;15377;48.540;9.268;2023-06-22T00:06:12;10.97;;;7.43;;
2644;SDS011;15377;48.540;9.268;2023-06-22T00:08:38;14.30;;;7.00;;
2644;SDS011;15377;48.540;9.268;2023-06-22T00:11:03;10.90;;;7.50;;
2644;SDS011;15377;48.540;9.268;2023-06-22T00:13:29;11.40;;;7.50;;
2644;SDS011;15377;48.540;9.268;2023-06-22T00:15:54;12.80;;;7.07;;
2644;SDS011;15377;48.540;9.268;2023-06-22T00:18:19;11.83;;;7.50;;
2644;SDS011;15377;48.540;9.268;2023-06-22T00:20:45;13.57;;;8.60;;
2644;SDS011;15377;48.540;9.268;2023-06-22T00:23:10;10.97;;;7.50;;
2644;SDS011;15377;48.540;9.268;2023-06-22T00:25:40;11.07;;;7.77;;
2644;SDS011;15377;48.540;9.268;2023-06-22T00:28:05;12.00;;;7.30;;
2644;SDS011;15377;48.540;9.268;2023-06-22T00:30:31;13.50;;;7.30;;
2644;SDS011;15377;48.540;9.268;2023-06-22T00:32:57;12.37;;;7.73;;
2644;SDS011;15377;48.540;9.268;2023-06-22T00:35:23;11.77;;;7.63;;
2644;SDS011;15377;48.540;9.268;2023-06-22T00:37:53;12.00;;;7.23;;
2644;SDS011;15377;48.540;9.268;2023-06-22T00:40:25;11.80;;;6.90;;
2644;SDS011;15377;48.540;9.268;2023-06-22T00:42:52;11.97;;;7.60;;
2644;SDS011;15377;48.540;9.268;2023-06-22T00:45:17;11.03;;;7.60;;
2644;SDS011;15377;48.540;9.268;2023-06-22T00:47:42;11.33;;;7.03;;
2644;SDS011;15377;48.540;9.268;2023-06-22T00:50:08;11.70;;;7.83;;
2644;SDS011;15377;48.540;9.268;2023-06-22T00:52:38;13.50;;;7.70;;
2644;SDS011;15377;48.540;9.268;2023-06-22T00:55:08;11.53;;;6.90;;
2644;SDS011;15377;48.540;9.268;2023-06-22T00:57:34;11.83;;;7.97;;
2644;SDS011;15377;48.540;9.268;2023-06-22T01:00:02;10.60;;;6.83;;
2644;SDS011;15377;48.540;9.268;2023-06-22T01:02:31;13.40;;;7.70;;
2644;SDS011;15377;48.540;9.268;2023-06-22T01:04:56;11.87;;;6.90;;
2644;SDS011;15377;48.540;9.268;2023-06-22T01:09:58;9.80;;;5.67;;
2644;SDS011;15377;48.540;9.268;2023-06-22T01:12:24;11.27;;;6.60;;
2644;SDS011;15377;48.540;9.268;2023-06-22T01:14:58;13.77;;;8.00;;
2644;SDS011;15377;48.540;9.268;2023-06-22T01:17:36;11.60;;;7.20;;
2644;SDS011;15377;48.540;9.268;2023-06-22T01:20:05;12.80;;;8.03;;
2644;SDS011;15377;48.540;9.268;2023-06-22T01:22:35;13.93;;;7.90;;
2644;SDS011;15377;48.540;9.268;2023-06-22T01:30:06;14.43;;;8.73;;
2644;SDS011;15377;48.540;9.268;2023-06-22T01:32:35;12.13;;;7.70;;
2644;SDS011;15377;48.540;9.268;2023-06-22T01:35:03;10.50;;;6.37;;
2644;SDS011;15377;48.540;9.268;2023-06-22T01:37:31;12.20;;;7.30;;
2644;SDS011;15377;48.540;9.268;2023-06-22T01:39:58;16.93;;;8.40;;
2644;SDS011;15377;48.540;9.268;2023-06-22T01:42:24;13.97;;;8.63;;
2644;SDS011;15377;48.540;9.268;2023-06-22T01:44:52;18.43;;;8.10;;
2644;SDS011;15377;48.540;9.268;2023-06-22T01:47:18;11.80;;;8.20;;
2644;SDS011;15377;48.540;9.268;2023-06-22T01:49:45;12.83;;;7.80;;
2644;SDS011;15377;48.540;9.268;2023-06-22T01:52:11;15.17;;;8.60;;
2644;SDS011;15377;48.540;9.268;2023-06-22T01:54:37;14.90;;;7.00;;
2644;SDS011;15377;48.540;9.268;2023-06-22T01:57:03;11.40;;;6.83;;
2644;SDS011;15377;48.540;9.268;2023-06-22T01:59:31;12.07;;;7.47;;
2644;SDS011;15377;48.540;9.268;2023-06-22T02:02:04;11.33;;;6.40;;
2644;SDS011;15377;48.540;9.268;2023-06-22T02:04:56;9.03;;;6.00;;
2644;SDS011;15377;48.540;9.268;2023-06-22T02:07:25;11.67;;;7.20;;
2644;SDS011;15377;48.540;9.268;2023-06-22T02:09:57;15.43;;;7.10;;
2644;SDS011;15377;48.540;9.268;2023-06-22T02:12:24;12.77;;;8.00;;
2644;SDS011;15377;48.540;9.268;2023-06-22T02:14:52;12.63;;;7.87;;
2644;SDS011;15377;48.540;9.268;2023-06-22T02:17:18;11.30;;;6.87;;
2644;SDS011;15377;48.540;9.268;2023-06-22T02:19:44;11.50;;;7.20;;
2644;SDS011;15377;48.540;9.268;2023-06-22T02:22:10;10.70;;;7.17;;
2644;SDS011;15377;48.540;9.268;2023-06-22T02:24:37;13.40;;;7.50;;
2644;SDS011;15377;48.540;9.268;2023-06-22T02:27:03;12.10;;;8.13;;
2644;SDS011;15377;48.540;9.268;2023-06-22T02:29:28;13.10;;;8.50;;
2644;SDS011;15377;48.540;9.268;2023-06-22T02:31:54;11.10;;;7.27;;
2644;SDS011;15377;48.540;9.268;2023-06-22T02:34:21;11.70;;;7.97;;
2644;SDS011;15377;48.540;9.268;2023-06-22T02:36:47;10.90;;;7.37;;
2644;SDS011;15377;48.540;9.268;2023-06-22T02:39:19;14.63;;;9.00;;
2644;SDS011;15377;48.540;9.268;2023-06-22T02:41:47;13.50;;;8.50;;
2644;SDS011;15377;48.540;9.268;2023-06-22T02:44:13;15.33;;;10.10;;
2644;SDS011;15377;48.540;9.268;2023-06-22T02:46:39;13.93;;;8.33;;
2644;SDS011;15377;48.540;9.268;2023-06-22T02:49:04;14.63;;;8.23;;
2644;SDS011;15377;48.540;9.268;2023-06-22T02:51:30;11.47;;;7.50;;
2644;SDS011;15377;48.540;9.268;2023-06-22T02:53:58;11.13;;;7.50;;
2644;SDS011;15377;48.540;9.268;2023-06-22T02:56:24;12.50;;;7.47;;
2644;SDS011;15377;48.540;9.268;2023-06-22T02:58:49;10.53;;;7.77;;
2644;SDS011;15377;48.540;9.268;2023-06-22T03:01:15;13.03;;;7.47;;
2644;SDS011;15377;48.540;9.268;2023-06-22T03:03:40;13.07;;;8.30;;
2644;SDS011;15377;48.540;9.268;2023-06-22T03:06:05;13.80;;;8.27;;
2644;SDS011;15377;48.540;9.268;2023-06-22T03:08:31;11.27;;;7.67;;
2644;SDS011;15377;48.540;9.268;2023-06-22T03:10:56;12.50;;;7.50;;
2644;SDS011;15377;48.540;9.268;2023-06-22T03:13:22;17.17;;;7.53;;
2644;SDS011;15377;48.540;9.268;2023-06-22T03:15:48;12.13;;;8.07;;
2644;SDS011;15377;48.540;9.268;2023-06-22T03:18:13;12.47;;;7.80;;
2644;SDS011;15377;48.540;9.268;2023-06-22T03:20:40;12.20;;;7.40;;
2644;SDS011;15377;48.540;9.268;2023-06-22T03:23:06;13.30;;;7.83;;
2644;SDS011;15377;48.540;9.268;2023-06-22T03:25:31;13.10;;;8.53;;
2644;SDS011;15377;48.540;9.268;2023-06-22T03:27:58;11.67;;;7.43;;
2644;SDS011;15377;48.540;9.268;2023-06-22T03:30:26;12.57;;;7.80;;
2644;SDS011;15377;48.540;9.268;2023-06-22T03:32:51;12.43;;;7.70;;
2644;SDS011;15377;48.540;9.268;2023-06-22T03:35:16;11.53;;;7.20;;
2644;SDS011;15377;48.540;9.268;2023-06-22T03:37:42;11.60;;;6.93;;
2644;SDS011;15377;48.540;9.268;2023-06-22T03:40:07;12.93;;;8.10;;
2644;SDS011;15377;48.540;9.268;2023-06-22T03:42:34;13.07;;;7.70;;
2644;SDS011;15377;48.540;9.268;2023-06-22T03:45:03;12.47;;;7.70;;
2644;SDS011;15377;48.540;9.268;2023-06-22T03:47:29;10.83;;;6.87;;
2644;SDS011;15377;48.540;9.268;2023-06-22T03:49:54;13.23;;;8.27;;
2644;SDS011;15377;48.540;9.268;2023-06-22T03:52:20;11.50;;;7.80;;
2644;SDS011;15377;48.540;9.268;2023-06-22T03:54:47;14.30;;;8.20;;
2644;SDS011;15377;48.540;9.268;2023-06-22T03:57:12;13.47;;;8.60;;
2644;SDS011;15377;48.540;9.268;2023-06-22T03:59:38;13.77;;;8.40;;
2644;SDS011;15377;48.540;9.268;2023-06-22T04:02:03;13.83;;;8.03;;
2644;SDS011;15377;48.540;9.268;2023-06-22T04:04:29;17.00;;;7.87;;
2644;SDS011;15377;48.540;9.268;2023-06-22T04:06:54;11.87;;;8.23;;
2644;SDS011;15377;48.540;9.268;2023-06-22T04:09:19;13.50;;;7.90;;
2644;SDS011;15377;48.540;9.268;2023-06-22T04:11:46;12.50;;;7.97;;
2644;SDS011;15377;48.540;9.268;2023-06-22T04:14:11;12.97;;;8.37;;
2644;SDS011;15377;48.540;9.268;2023-06-22T04:16:37;15.57;;;8.43;;
2644;SDS011;15377;48.540;9.268;2023-06-22T04:19:02;11.73;;;7.13;;
2644;SDS011;15377;48.540;9.268;2023-06-22T04:21:27;15.10;;;8.10;;
2644;SDS011;15377;48.540;9.268;2023-06-22T04:23:53;12.87;;;7.90;;
2644;SDS011;15377;48.540;9.268;2023-06-22T04:26:18;15.70;;;7.57;;
2644;SDS011;15377;48.540;9.268;2023-06-22T04:28:45;12.87;;;8.90;;
2644;SDS011;15377;48.540;9.268;2023-06-22T04:31:16;14.40;;;8.27;;
2644;SDS011;15377;48.540;9.268;2023-06-22T04:33:44;18.47;;;7.43;;
2644;SDS011;15377;48.540;9.268;2023-06-22T04:36:09;10.93;;;6.73;;
2644;SDS011;15377;48.540;9.268;2023-06-22T04:38:38;14.63;;;7.97;;
2644;SDS011;15377;48.540;9.268;2023-06-22T04:41:04;12.70;;;7.33;;
2644;SDS011;15377;48.540;9.268;2023-06-22T04:43:29;11.07;;;7.07;;
2644;SDS011;15377;48.540;9.268;2023-06-22T04:45:55;11.53;;;7.63;;
2644;SDS011;15377;48.540;9.268;2023-06-22T04:48:31;12.87;;;7.40;;
2644;SDS011;15377;48.540;9.268;2023-06-22T04:51:01;12.90;;;8.00;;
2644;SDS011;15377;48.540;9.268;2023-06-22T04:53:30;10.43;;;7.83;;
2644;SDS011;15377;48.540;9.268;2023-06-22T04:55:56;13.57;;;8.87;;
2644;SDS011;15377;48.540;9.268;2023-06-22T04:58:22;13.10;;;8.03;;
2644;SDS011;15377;48.540;9.268;2023-06-22T05:00:47;13.63;;;8.40;;
2644;SDS011;15377;48.540;9.268;2023-06-22T05:03:12;17.60;;;10.10;;
2644;SDS011;15377;48.540;9.268;2023-06-22T05:05:38;14.17;;;8.83;;
2644;SDS011;15377;48.540;9.268;2023-06-22T05:08:03;15.93;;;9.87;;
2644;SDS011;15377;48.540;9.268;2023-06-22T05:10:31;13.30;;;9.27;;
2644;SDS011;15377;48.540;9.268;2023-06-22T05:12:57;13.80;;;8.93;;
2644;SDS011;15377;48.540;9.268;2023-06-22T05:15:23;14.20;;;9.27;;
2644;SDS011;15377;48.540;9.268;2023-06-22T05:17:51;16.73;;;10.00;;
2644;SDS011;15377;48.540;9.268;2023-06-22T05:20:17;13.60;;;8.87;;
2644;SDS011;15377;48.540;9.268;2023-06-22T05:22:43;17.80;;;10.17;;
2644;SDS011;15377;48.540;9.268;2023-06-22T05:25:10;15.10;;;8.17;;
2644;SDS011;15377;48.540;9.268;2023-06-22T05:27:36;13.93;;;9.17;;
2644;SDS011;15377;48.540;9.268;2023-06-22T05:30:04;13.40;;;9.23;;
2644;SDS011;15377;48.540;9.268;2023-06-22T05:32:31;15.00;;;9.70;;
2644;SDS011;15377;48.540;9.268;2023-06-22T05:34:57;14.17;;;9.30;;
2644;SDS011;15377;48.540;9.268;2023-06-22T05:37:22;14.80;;;9.53;;
2644;SDS011;15377;48.540;9.268;2023-06-22T05:39:48;14.53;;;9.53;;
2644;SDS011;15377;48.540;9.268;2023-06-22T05:42:13;15.00;;;8.97;;
2644;SDS011;15377;48.540;9.268;2023-06-22T05:44:38;11.97;;;8.67;;
2644;SDS011;15377;48.540;9.268;2023-06-22T05:47:05;15.33;;;9.70;;
2644;SDS011;15377;48.540;9.268;2023-06-22T05:49:31;13.80;;;8.93;;
2644;SDS011;15377;48.540;9.268;2023-06-22T05:51:57;15.67;;;9.57;;
2644;SDS011;15377;48.540;9.268;2023-06-22T05:54:24;12.67;;;8.13;;
2644;SDS011;15377;48.540;9.268;2023-06-22T05:56:49;13.50;;;9.30;;
2644;SDS011;15377;48.540;9.268;2023-06-22T05:59:15;15.10;;;9.30;;
2644;SDS011;15377;48.540;9.268;2023-06-22T06:01:40;16.83;;;9.57;;
2644;SDS011;15377;48.540;9.268;2023-06-22T06:04:06;15.03;;;9.20;;
2644;SDS011;15377;48.540;9.268;2023-06-22T06:06:34;11.60;;;8.00;;
2644;SDS011;15377;48.540;9.268;2023-06-22T06:09:02;14.60;;;8.47;;
2644;SDS011;15377;48.540;9.268;2023-06-22T06:11:30;12.10;;;7.93;;
2644;SDS011;15377;48.540;9.268;2023-06-22T06:13:56;11.53;;;8.00;;
2644;SDS011;15377;48.540;9.268;2023-06-22T06:16:21;12.23;;;7.90;;
2644;SDS011;15377;48.540;9.268;2023-06-22T06:18:47;12.73;;;8.47;;
2644;SDS011;15377;48.540;9.268;2023-06-22T06:21:14;13.90;;;8.30;;
2644;SDS011;15377;48.540;9.268;2023-06-22T06:23:40;14.20;;;7.80;;
2644;SDS011;15377;48.540;9.268;2023-06-22T06:26:05;11.83;;;8.37;;
2644;SDS011;15377;48.540;9.268;2023-06-22T06:28:32;12.23;;;7.13;;
2644;SDS011;15377;48.540;9.268;2023-06-22T06:30:57;12.93;;;7.97;;
2644;SDS011;15377;48.540;9.268;2023-06-22T06:33:23;15.10;;;8.67;;
2644;SDS011;15377;48.540;9.268;2023-06-22T06:35:49;13.43;;;8.40;;
2644;SDS011;15377;48.540;9.268;2023-06-22T06:38:14;14.03;;;7.70;;
2644;SDS011;15377;48.540;9.268;2023-06-22T06:40:40;11.67;;;8.40;;
2644;SDS011;15377;48.540;9.268;2023-06-22T06:43:06;14.20;;;9.20;;
2644;SDS011;15377;48.540;9.268;2023-06-22T06:45:31;14.00;;;7.63;;
2644;SDS011;15377;48.540;9.268;2023-06-22T06:47:58;11.50;;;8.17;;
2644;SDS011;15377;48.540;9.268;2023-06-22T06:50:23;12.93;;;7.30;;
2644;SDS011;15377;48.540;9.268;2023-06-22T06:52:49;13.20;;;8.03;;
2644;SDS011;15377;48.540;9.268;2023-06-22T06:55:15;11.27;;;6.60;;
2644;SDS011;15377;48.540;9.268;2023-06-22T06:57:41;12.30;;;7.00;;
2644;SDS011;15377;48.540;9.268;2023-06-22T07:00:08;13.20;;;7.43;;
2644;SDS011;15377;48.540;9.268;2023-06-22T07:02:39;12.00;;;7.57;;
2644;SDS011;15377;48.540;9.268;2023-06-22T07:05:06;12.60;;;7.33;;
2644;SDS011;15377;48.540;9.268;2023-06-22T07:07:32;11.27;;;6.40;;
2644;SDS011;15377;48.540;9.268;2023-06-22T07:09:57;13.80;;;7.20;;
2644;SDS011;15377;48.540;9.268;2023-06-22T07:12:22;10.30;;;6.83;;
2644;SDS011;15377;48.540;9.268;2023-06-22T07:14:48;11.87;;;6.87;;
2644;SDS011;15377;48.540;9.268;2023-06-22T07:17:13;12.50;;;8.13;;
2644;SDS011;15377;48.540;9.268;2023-06-22T07:19:38;10.57;;;6.23;;
2644;SDS011;15377;48.540;9.268;2023-06-22T07:22:06;10.20;;;6.70;;
2644;SDS011;15377;48.540;9.268;2023-06-22T07:24:31;12.53;;;7.57;;
2644;SDS011;15377;48.540;9.268;2023-06-22T07:26:57;10.90;;;6.87;;
2644;SDS011;15377;48.540;9.268;2023-06-22T07:29:24;10.80;;;6.73;;
2644;SDS011;15377;48.540;9.268;2023-06-22T07:31:50;10.77;;;7.33;;
2644;SDS011;15377;48.540;9.268;2023-06-22T07:34:19;10.07;;;6.10;;
2644;SDS011;15377;48.540;9.268;2023-06-22T07:36:44;10.63;;;6.53;;
2644;SDS011;15377;48.540;9.268;2023-06-22T07:39:11;11.60;;;6.80;;
2644;SDS011;15377;48.540;9.268;2023-06-22T07:41:37;12.70;;;7.27;;
2644;SDS011;15377;48.540;9.268;2023-06-22T07:44:03;9.83;;;5.60;;
2644;SDS011;15377;48.540;9.268;2023-06-22T07:46:29;9.83;;;5.50;;
2644;SDS011;15377;48.540;9.268;2023-06-22T07:48:55;11.80;;;6.40;;
2644;SDS011;15377;48.540;9.268;2023-06-22T07:51:21;11.17;;;6.13;;
2644;SDS011;15377;48.540;9.268;2023-06-22T07:53:46;8.80;;;4.97;;
2644;SDS011;15377;48.540;9.268;2023-06-22T07:56:12;9.33;;;5.80;;
2644;SDS011;15377;48.540;9.268;2023-06-22T07:58:38;11.70;;;6.40;;
2644;SDS011;15377;48.540;9.268;2023-06-22T08:01:03;9.50;;;5.63;;
2644;SDS011;15377;48.540;9.268;2023-06-22T08:03:29;10.50;;;6.40;;
2644;SDS011;15377;48.540;9.268;2023-06-22T08:05:55;9.40;;;5.50;;
2644;SDS011;15377;48.540;9.268;2023-06-22T08:08:20;10.00;;;5.10;;
2644;SDS011;15377;48.540;9.268;2023-06-22T08:10:46;10.00;;;5.63;;
2644;SDS011;15377;48.540;9.268;2023-06-22T08:13:11;11.87;;;5.97;;
2644;SDS011;15377;48.540;9.268;2023-06-22T08:15:37;9.87;;;6.03;;
2644;SDS011;15377;48.540;9.268;2023-06-22T08:18:02;9.90;;;5.13;;
2644;SDS011;15377;48.540;9.268;2023-06-22T08:20:27;10.27;;;6.03;;
2644;SDS011;15377;48.540;9.268;2023-06-22T08:22:53;8.97;;;4.80;;
2644;SDS011;15377;48.540;9.268;2023-06-22T08:25:20;8.83;;;5.43;;
2644;SDS011;15377;48.540;9.268;2023-06-22T08:27:46;9.87;;;5.90;;
2644;SDS011;15377;48.540;9.268;2023-06-22T08:30:12;11.10;;;5.60;;
2644;SDS011;15377;48.540;9.268;2023-06-22T08:32:38;8.63;;;5.10;;
2644;SDS011;15377;48.540;9.268;2023-06-22T08:35:03;9.73;;;5.77;;
2644;SDS011;15377;48.540;9.268;2023-06-22T08:37:31;11.73;;;6.30;;
2644;SDS011;15377;48.540;9.268;2023-06-22T08:40:00;11.10;;;6.43;;
2644;SDS011;15377;48.540;9.268;2023-06-22T08:42:32;15.37;;;8.63;;
2644;SDS011;15377;48.540;9.268;2023-06-22T08:44:58;11.70;;;5.70;;
2644;SDS011;15377;48.540;9.268;2023-06-22T08:47:23;9.67;;;6.07;;
2644;SDS011;15377;48.540;9.268;2023-06-22T08:49:49;10.43;;;5.50;;
2644;SDS011;15377;48.540;9.268;2023-06-22T08:52:14;9.73;;;5.40;;
2644;SDS011;15377;48.540;9.268;2023-06-22T08:54:39;9.40;;;5.63;;
2644;SDS011;15377;48.540;9.268;2023-06-22T08:57:05;9.83;;;6.63;;
2644;SDS011;15377;48.540;9.268;2023-06-22T08:59:31;11.53;;;5.90;;
2644;SDS011;15377;48.540;9.268;2023-06-22T09:01:56;9.77;;;5.67;;
2644;SDS011;15377;48.540;9.268;2023-06-22T09:04:22;10.43;;;5.40;;
2644;SDS011;15377;48.540;9.268;2023-06-22T09:06:47;10.00;;;6.00;;
2644;SDS011;15377;48.540;9.268;2023-06-22T09:09:15;10.40;;;5.77;;
2644;SDS011;15377;48.540;9.268;2023-06-22T09:11:41;14.13;;;5.70;;
2644;SDS011;15377;48.540;9.268;2023-06-22T09:14:06;10.87;;;6.40;;
2644;SDS011;15377;48.540;9.268;2023-06-22T09:16:32;10.17;;;5.60;;
2644;SDS011;15377;48.540;9.268;2023-06-22T09:18:57;13.87;;;6.10;;
2644;SDS011;15377;48.540;9.268;2023-06-22T09:21:23;10.90;;;5.87;;
2644;SDS011;15377;48.540;9.268;2023-06-22T09:23:49;9.40;;;5.50;;
2644;SDS011;15377;48.540;9.268;2023-06-22T09:26:19;8.93;;;5.43;;
2644;SDS011;15377;48.540;9.268;2023-06-22T09:28:45;11.10;;;6.20;;
2644;SDS011;15377;48.540;9.268;2023-06-22T09:31:10;11.60;;;5.70;;
2644;SDS011;15377;48.540;9.268;2023-06-22T09:33:36;10.70;;;5.33;;
2644;SDS011;15377;48.540;9.268;2023-06-22T09:36:05;10.20;;;5.87;;
2644;SDS011;15377;48.540;9.268;2023-06-22T09:38:34;10.60;;;6.70;;
2644;SDS011;15377;48.540;9.268;2023-06-22T09:41:01;9.90;;;6.70;;
2644;SDS011;15377;48.540;9.268;2023-06-22T09:43:26;10.30;;;6.43;;
2644;SDS011;15377;48.540;9.268;2023-06-22T09:45:52;10.40;;;5.63;;
2644;SDS011;15377;48.540;9.268;2023-06-22T09:48:17;13.43;;;6.53;;
2644;SDS011;15377;48.540;9.268;2023-06-22T09:50:43;10.60;;;6.30;;
2644;SDS011;15377;48.540;9.268;2023-06-22T09:53:08;10.53;;;6.80;;
2644;SDS011;15377;48.540;9.268;2023-06-22T09:55:34;9.63;;;6.27;;
2644;SDS011;15377;48.540;9.268;2023-06-22T09:57:59;10.00;;;6.33;;
2644;SDS011;15377;48.540;9.268;2023-06-22T10:00:25;10.83;;;6.80;;
2644;SDS011;15377;48.540;9.268;2023-06-22T10:02:51;11.83;;;6.00;;
2644;SDS011;15377;48.540;9.268;2023-06-22T10:05:17;11.10;;;7.97;;
2644;SDS011;15377;48.540;9.268;2023-06-22T10:07:42;9.50;;;6.03;;
2644;SDS011;15377;48.540;9.268;2023-06-22T10:10:09;10.87;;;6.20;;
2644;SDS011;15377;48.540;9.268;2023-06-22T10:12:36;11.17;;;8.20;;
2644;SDS011;15377;48.540;9.268;2023-06-22T10:15:02;10.27;;;5.60;;
2644;SDS011;15377;48.540;9.268;2023-06-22T10:17:27;10.40;;;6.27;;
2644;SDS011;15377;48.540;9.268;2023-06-22T10:19:53;9.30;;;5.50;;
2644;SDS011;15377;48.540;9.268;2023-06-22T10:22:18;10.13;;;6.27;;
2644;SDS011;15377;48.540;9.268;2023-06-22T10:24:43;9.90;;;5.30;;
2644;SDS011;15377;48.540;9.268;2023-06-22T10:27:12;12.23;;;6.00;;
2644;SDS011;15377;48.540;9.268;2023-06-22T10:29:38;10.77;;;6.50;;
2644;SDS011;15377;48.540;9.268;2023-06-22T10:32:04;11.67;;;6.30;;
2644;SDS011;15377;48.540;9.268;2023-06-22T10:34:30;9.83;;;6.00;;
2644;SDS011;15377;48.540;9.268;2023-06-22T10:36:55;12.70;;;6.70;;
2644;SDS011;15377;48.540;9.268;2023-06-22T10:39:20;10.80;;;5.97;;
2644;SDS011;15377;48.540;9.268;2023-06-22T10:41:46;9.87;;;5.50;;
2644;SDS011;15377;48.540;9.268;2023-06-22T10:44:11;9.70;;;5.70;;
2644;SDS011;15377;48.540;9.268;2023-06-22T10:46:37;9.50;;;5.73;;
2644;SDS011;15377;48.540;9.268;2023-06-22T10:49:03;11.23;;;5.90;;
2644;SDS011;15377;48.540;9.268;2023-06-22T10:51:28;10.40;;;5.87;;
2644;SDS011;15377;48.540;9.268;2023-06-22T10:53:53;11.70;;;6.03;;
2644;SDS011;15377;48.540;9.268;2023-06-22T10:56:19;8.97;;;5.37;;
2644;SDS011;15377;48.540;9.268;2023-06-22T10:58:44;8.60;;;5.80;;
2644;SDS011;15377;48.540;9.268;2023-06-22T11:01:10;11.40;;;6.47;;
2644;SDS011;15377;48.540;9.268;2023-06-22T11:03:36;9.20;;;5.33;;
2644;SDS011;15377;48.540;9.268;2023-06-22T11:06:01;10.00;;;5.50;;
2644;SDS011;15377;48.540;9.268;2023-06-22T11:08:26;8.00;;;5.97;;
2644;SDS011;15377;48.540;9.268;2023-06-22T11:10:52;9.37;;;4.70;;
2644;SDS011;15377;48.540;9.268;2023-06-22T11:13:17;10.00;;;5.20;;
2644;SDS011;15377;48.540;9.268;2023-06-22T11:15:43;13.00;;;6.50;;
2644;SDS011;15377;48.540;9.268;2023-06-22T11:18:08;10.53;;;6.23;;
2644;SDS011;15377;48.540;9.268;2023-06-22T11:20:33;9.40;;;5.50;;
2644;SDS011;15377;48.540;9.268;2023-06-22T11:23:03;11.97;;;5.70;;
2644;SDS011;15377;48.540;9.268;2023-06-22T11:25:29;8.27;;;4.73;;
2644;SDS011;15377;48.540;9.268;2023-06-22T11:27:54;8.70;;;4.93;;
2644;SDS011;15377;48.540;9.268;2023-06-22T11:30:19;10.23;;;5.80;;
2644;SDS011;15377;48.540;9.268;2023-06-22T11:32:45;12.47;;;6.13;;
2644;SDS011;15377;48.540;9.268;2023-06-22T11:35:10;10.83;;;5.10;;
2644;SDS011;15377;48.540;9.268;2023-06-22T11:37:35;9.43;;;5.60;;
2644;SDS011;15377;48.540;9.268;2023-06-22T11:40:01;9.00;;;5.53;;
2644;SDS011;15377;48.540;9.268;2023-06-22T11:42:29;9.10;;;5.70;;
2644;SDS011;15377;48.540;9.268;2023-06-22T11:44:55;10.43;;;5.77;;
2644;SDS011;15377;48.540;9.268;2023-06-22T11:47:20;9.80;;;5.70;;
2644;SDS011;15377;48.540;9.268;2023-06-22T11:49:45;9.07;;;5.67;;
2644;SDS011;15377;48.540;9.268;2023-06-22T11:52:11;9.37;;;5.60;;
2644;SDS011;15377;48.540;9.268;2023-06-22T11:54:37;11.23;;;5.97;;
2644;SDS011;15377;48.540;9.268;2023-06-22T11:57:03;9.23;;;6.37;;
2644;SDS011;15377;48.540;9.268;2023-06-22T11:59:29;11.10;;;6.03;;
2644;SDS011;15377;48.540;9.268;2023-06-22T12:01:54;9.23;;;6.40;;
2644;SDS011;15377;48.540;9.268;2023-06-22T12:04:20;10.90;;;6.10;;
2644;SDS011;15377;48.540;9.268;2023-06-22T12:06:45;9.20;;;5.00;;
2644;SDS011;15377;48.540;9.268;2023-06-22T12:09:11;11.20;;;6.23;;
2644;SDS011;15377;48.540;9.268;2023-06-22T12:11:38;11.87;;;5.40;;
2644;SDS011;15377;48.540;9.268;2023-06-22T12:14:04;7.90;;;5.57;;
2644;SDS011;15377;48.540;9.268;2023-06-22T12:16:29;10.57;;;6.23;;
2644;SDS011;15377;48.540;9.268;2023-06-22T12:18:54;11.00;;;5.80;;
2644;SDS011;15377;48.540;9.268;2023-06-22T12:21:20;12.13;;;6.03;;
2644;SDS011;15377;48.540;9.268;2023-06-22T12:23:45;9.90;;;5.30;;
2644;SDS011;15377;48.540;9.268;2023-06-22T12:26:11;11.93;;;6.47;;
2644;SDS011;15377;48.540;9.268;2023-06-22T12:28:36;10.23;;;6.20;;
2644;SDS011;15377;48.540;9.268;2023-06-22T12:31:01;10.77;;;5.70;;
2644;SDS011;15377;48.540;9.268;2023-06-22T12:33:27;8.80;;;5.00;;
2644;SDS011;15377;48.540;9.268;2023-06-22T12:35:52;10.57;;;4.90;;
2644;SDS011;15377;48.540;9.268;2023-06-22T12:38:17;13.30;;;5.90;;
2644;SDS011;15377;48.540;9.268;2023-06-22T12:40:43;9.50;;;5.43;;
2644;SDS011;15377;48.540;9.268;2023-06-22T12:43:08;11.40;;;5.87;;
2644;SDS011;15377;48.540;9.268;2023-06-22T12:45:33;9.50;;;5.80;;
2644;SDS011;15377;48.540;9.268;2023-06-22T12:47:59;10.37;;;6.10;;
2644;SDS011;15377;48.540;9.268;2023-06-22T12:50:25;11.87;;;5.87;;
2644;SDS011;15377;48.540;9.268;2023-06-22T12:52:50;10.97;;;5.47;;
2644;SDS011;15377;48.540;9.268;2023-06-22T12:55:15;9.90;;;5.90;;
2644;SDS011;15377;48.540;9.268;2023-06-22T12:57:41;14.43;;;5.87;;
2644;SDS011;15377;48.540;9.268;2023-06-22T13:00:06;11.77;;;6.90;;
2644;SDS011;15377;48.540;9.268;2023-06-22T13:02:34;9.20;;;5.70;;
2644;SDS011;15377;48.540;9.268;2023-06-22T13:05:00;10.10;;;6.00;;
2644;SDS011;15377;48.540;9.268;2023-06-22T13:07:26;10.17;;;5.70;;
2644;SDS011;15377;48.540;9.268;2023-06-22T13:09:51;12.77;;;5.77;;
2644;SDS011;15377;48.540;9.268;2023-06-22T13:12:17;11.20;;;7.27;;
2644;SDS011;15377;48.540;9.268;2023-06-22T13:14:43;16.20;;;6.10;;
2644;SDS011;15377;48.540;9.268;2023-06-22T13:17:08;8.57;;;5.27;;
2644;SDS011;15377;48.540;9.268;2023-06-22T13:19:34;12.83;;;6.17;;
2644;SDS011;15377;48.540;9.268;2023-06-22T13:21:59;9.57;;;5.90;;
2644;SDS011;15377;48.540;9.268;2023-06-22T13:24:25;9.23;;;6.00;;
2644;SDS011;15377;48.540;9.268;2023-06-22T13:26:50;13.20;;;6.13;;
2644;SDS011;15377;48.540;9.268;2023-06-22T13:29:16;11.07;;;5.87;;
2644;SDS011;15377;48.540;9.268;2023-06-22T13:31:41;9.60;;;5.30;;
2644;SDS011;15377;48.540;9.268;2023-06-22T13:34:07;9.37;;;5.90;;
2644;SDS011;15377;48.540;9.268;2023-06-22T13:36:32;7.90;;;5.13;;
2644;SDS011;15377;48.540;9.268;2023-06-22T13:38:57;8.80;;;5.57;;
2644;SDS011;15377;48.540;9.268;2023-06-22T13:41:23;9.80;;;5.77;;
2644;SDS011;15377;48.540;9.268;2023-06-22T13:43:48;10.60;;;5.73;;
2644;SDS011;15377;48.540;9.268;2023-06-22T13:46:14;7.93;;;5.10;;
2644;SDS011;15377;48.540;9.268;2023-06-22T13:48:39;11.70;;;5.63;;
2644;SDS011;15377;48.540;9.268;2023-06-22T13:51:04;10.33;;;5.40;;
2644;SDS011;15377;48.540;9.268;2023-06-22T13:53:30;13.00;;;5.90;;
2644;SDS011;15377;48.540;9.268;2023-06-22T13:55:55;8.53;;;4.80;;
2644;SDS011;15377;48.540;9.268;2023-06-22T13:58:21;9.90;;;5.37;;
2644;SDS011;15377;48.540;9.268;2023-06-22T14:00:46;9.13;;;5.40;;
2644;SDS011;15377;48.540;9.268;2023-06-22T14:03:12;9.83;;;5.43;;
2644;SDS011;15377;48.540;9.268;2023-06-22T14:05:40;10.70;;;5.23;;
2644;SDS011;15377;48.540;9.268;2023-06-22T14:08:06;10.20;;;6.03;;
2644;SDS011;15377;48.540;9.268;2023-06-22T14:10:31;9.90;;;5.80;;
2644;SDS011;15377;48.540;9.268;2023-06-22T14:12:57;8.33;;;5.30;;
2644;SDS011;15377;48.540;9.268;2023-06-22T14:15:22;10.63;;;5.70;;
2644;SDS011;15377;48.540;9.268;2023-06-22T14:17:47;8.43;;;5.40;;
2644;SDS011;15377;48.540;9.268;2023-06-22T14:20:13;14.10;;;6.13;;
2644;SDS011;15377;48.540;9.268;2023-06-22T14:22:38;11.37;;;6.67;;
2644;SDS011;15377;48.540;9.268;2023-06-22T14:25:05;9.50;;;5.97;;
2644;SDS011;15377;48.540;9.268;2023-06-22T14:27:30;8.57;;;5.10;;
2644;SDS011;15377;48.540;9.268;2023-06-22T14:29:56;9.70;;;5.30;;
2644;SDS011;15377;48.540;9.268;2023-06-22T14:32:21;9.37;;;5.97;;
2644;SDS011;15377;48.540;9.268;2023-06-22T14:34:47;10.43;;;6.00;;
2644;SDS011;15377;48.540;9.268;2023-06-22T14:37:12;8.83;;;5.63;;
2644;SDS011;15377;48.540;9.268;2023-06-22T14:39:38;9.80;;;5.50;;
2644;SDS011;15377;48.540;9.268;2023-06-22T14:42:04;12.60;;;6.70;;
2644;SDS011;15377;48.540;9.268;2023-06-22T14:44:30;9.73;;;5.83;;
2644;SDS011;15377;48.540;9.268;2023-06-22T14:46:56;10.93;;;6.10;;
2644;SDS011;15377;48.540;9.268;2023-06-22T14:49:21;12.87;;;6.10;;
2644;SDS011;15377;48.540;9.268;2023-06-22T14:51:47;11.77;;;5.70;;